createdAt,value
2023-03-23T15:59:48.964Z,17.26
2023-03-23T16:02:50.113Z,17.17
2023-03-23T16:05:50.016Z,17.10
2023-03-23T16:08:53.969Z,16.98
2023-03-23T16:11:55.027Z,16.89
2023-03-23T16:14:54.967Z,16.74
2023-03-23T16:17:55.040Z,16.62
2023-03-23T16:20:55.006Z,16.56
2023-03-23T16:23:54.949Z,16.42
2023-03-23T16:26:54.958Z,16.31
2023-03-23T16:30:03.592Z,16.23
2023-03-23T16:33:03.992Z,16.06
2023-03-23T16:36:05.085Z,15.97
2023-03-23T16:39:04.982Z,15.95
2023-03-23T16:42:05.006Z,16.01
2023-03-23T16:45:05.029Z,16.03
2023-03-23T16:48:08.128Z,16.06
2023-03-23T16:51:07.993Z,15.91
2023-03-23T16:54:07.981Z,15.57
2023-03-23T16:57:08.036Z,15.63
2023-03-23T17:00:08.032Z,15.60
2023-03-23T17:03:09.096Z,15.50
2023-03-23T17:06:08.984Z,15.42
2023-03-23T17:09:08.991Z,15.30
2023-03-23T17:12:09.002Z,15.21
2023-03-23T17:15:08.980Z,15.11
2023-03-23T17:18:09.007Z,15.06
2023-03-23T17:21:08.975Z,15.02
2023-03-23T17:24:09.005Z,14.95
2023-03-23T17:27:09.029Z,14.81
2023-03-23T17:30:08.987Z,14.78
2023-03-23T17:33:09.032Z,14.67
2023-03-23T17:36:09.027Z,14.58
2023-03-23T17:39:09.082Z,14.51
2023-03-23T17:42:09.020Z,14.43
2023-03-23T17:45:09.005Z,14.23
2023-03-23T17:48:09.278Z,14.17
2023-03-23T17:51:10.023Z,14.03
2023-03-23T17:54:10.000Z,13.98
2023-03-23T17:57:10.026Z,13.92
2023-03-23T18:00:10.010Z,13.86
2023-03-23T18:03:10.079Z,13.81
2023-03-23T18:06:17.983Z,13.71
2023-03-23T18:09:17.997Z,13.66
2023-03-23T18:12:18.032Z,13.62
2023-03-23T18:15:17.979Z,13.59
2023-03-23T18:18:19.014Z,13.56
2023-03-23T18:21:21.027Z,13.56
2023-03-23T18:24:21.040Z,13.57
2023-03-23T18:27:20.999Z,13.58
2023-03-23T18:30:22.059Z,13.57
2023-03-23T18:33:21.972Z,13.43
2023-03-23T18:36:23.089Z,13.51
2023-03-23T18:39:23.022Z,13.51
2023-03-23T18:42:23.003Z,13.44
2023-03-23T18:45:23.022Z,13.39
2023-03-23T18:48:23.008Z,13.47
2023-03-23T18:51:23.021Z,13.41
2023-03-23T18:54:24.005Z,13.26
2023-03-23T18:57:25.032Z,13.20
2023-03-23T19:00:25.010Z,13.03
2023-03-23T19:03:25.108Z,12.94
2023-03-23T19:06:31.933Z,12.83
2023-03-23T19:09:32.033Z,12.78
2023-03-23T19:12:32.041Z,12.74
2023-03-23T19:15:32.087Z,12.73
2023-03-23T19:18:31.987Z,12.57
2023-03-23T19:21:32.506Z,12.61
2023-03-23T19:24:33.009Z,12.54
2023-03-23T19:27:33.024Z,12.52
2023-03-23T19:30:33.029Z,12.52
2023-03-23T19:33:33.012Z,12.56
2023-03-23T19:36:36.061Z,12.54
2023-03-23T19:39:36.399Z,12.56
2023-03-23T19:42:36.037Z,12.48
2023-03-23T19:45:36.433Z,12.53
2023-03-23T19:48:39.585Z,12.45
2023-03-23T19:51:39.986Z,12.40
2023-03-23T19:54:40.813Z,12.32
2023-03-23T19:57:42.409Z,12.28
2023-03-23T20:00:42.041Z,12.16
2023-03-23T20:03:42.003Z,12.02
2023-03-23T20:06:42.024Z,12.03
2023-03-23T20:09:42.006Z,12.06
2023-03-23T20:12:42.047Z,12.05
2023-03-23T20:15:44.307Z,12.04
2023-03-23T20:18:45.128Z,12.07
2023-03-23T20:21:46.030Z,12.11
2023-03-23T20:24:46.034Z,12.09
2023-03-23T20:27:46.040Z,12.16
2023-03-23T20:30:46.007Z,12.18
2023-03-23T20:34:12.035Z,12.06
2023-03-23T20:37:13.015Z,12.15
2023-03-23T20:40:14.044Z,12.13
2023-03-23T20:43:14.032Z,12.04
2023-03-23T20:46:15.024Z,11.99
2023-03-23T20:49:15.000Z,12.01
2023-03-23T20:52:15.044Z,11.87
2023-03-23T20:55:15.002Z,11.86
2023-03-23T20:58:15.004Z,11.84
2023-03-23T21:01:16.105Z,11.78
2023-03-23T21:04:22.045Z,11.71
2023-03-23T21:07:23.076Z,11.64
2023-03-23T21:10:22.989Z,11.64
2023-03-23T21:13:23.007Z,11.62
2023-03-23T21:16:23.044Z,11.62
2023-03-23T21:19:24.038Z,11.59
2023-03-23T21:22:24.994Z,11.55
2023-03-23T21:25:35.390Z,11.57
2023-03-23T21:28:34.998Z,11.63
2023-03-23T21:31:40.003Z,11.62
2023-03-23T21:34:39.997Z,11.70
2023-03-23T21:37:33.307Z,11.67
2023-03-23T21:40:34.039Z,11.70
2023-03-23T21:43:34.032Z,11.68
2023-03-23T21:46:34.016Z,11.64
2023-03-23T21:49:34.055Z,11.58
2023-03-23T21:52:33.979Z,11.58
2023-03-23T21:55:36.025Z,11.54
2023-03-23T21:58:37.986Z,11.51
2023-03-23T22:01:38.065Z,11.41
2023-03-23T22:04:38.038Z,11.35
2023-03-23T22:07:39.989Z,11.30
2023-03-23T22:10:39.998Z,11.26
2023-03-23T22:13:41.043Z,11.19
2023-03-23T22:16:41.050Z,11.10
2023-03-23T22:19:40.990Z,10.92
2023-03-23T22:22:41.033Z,11.00
2023-03-23T22:25:41.037Z,10.95
2023-03-23T22:28:43.056Z,10.93
2023-03-23T22:34:45.988Z,10.81
2023-03-23T22:37:46.049Z,10.73
2023-03-23T22:40:46.264Z,10.64
2023-03-23T22:43:47.018Z,10.60
2023-03-23T22:46:47.045Z,10.61
2023-03-23T22:49:47.056Z,10.62
2023-03-23T22:52:47.002Z,10.60
2023-03-23T22:55:47.057Z,10.64
2023-03-23T22:58:47.004Z,10.58
2023-03-23T23:01:47.053Z,10.40
2023-03-23T23:04:48.038Z,10.47
2023-03-23T23:07:48.058Z,10.39
2023-03-23T23:10:49.007Z,10.34
2023-03-23T23:13:49.010Z,10.30
2023-03-23T23:16:49.044Z,10.29
2023-03-23T23:19:49.001Z,10.27
2023-03-23T23:22:49.017Z,10.29
2023-03-23T23:25:49.008Z,10.33
2023-03-23T23:28:49.045Z,10.31
2023-03-23T23:31:49.008Z,10.22
2023-03-23T23:34:50.068Z,10.28
2023-03-23T23:37:50.041Z,10.04
2023-03-23T23:40:50.094Z,9.92
2023-03-23T23:43:50.024Z,10.01
2023-03-23T23:46:50.036Z,9.90
2023-03-23T23:49:50.023Z,9.88
2023-03-23T23:52:51.026Z,9.75
2023-03-23T23:55:53.056Z,9.66
2023-03-23T23:58:52.997Z,9.57
